createdAt,value
2022-08-26T00:02:13.843Z,5.60
2022-08-26T00:04:46.548Z,4.53
2022-08-26T00:07:20.207Z,5.80
2022-08-26T00:09:50.025Z,4.15
2022-08-26T00:12:18.535Z,4.85
2022-08-26T00:14:57.517Z,3.60
2022-08-26T00:17:28.575Z,4.57
2022-08-26T00:20:02.278Z,5.80
2022-08-26T00:22:31.754Z,5.63
2022-08-26T00:25:08.959Z,5.07
2022-08-26T00:27:39.690Z,4.50
2022-08-26T00:30:15.017Z,4.65
2022-08-26T00:32:47.817Z,4.57
2022-08-26T00:35:16.282Z,4.50
2022-08-26T00:37:58.930Z,4.38
2022-08-26T00:40:37.421Z,5.47
2022-08-26T00:43:09.565Z,4.93
2022-08-26T00:45:50.086Z,4.78
2022-08-26T00:48:25.508Z,4.00
2022-08-26T00:51:05.677Z,6.05
2022-08-26T00:53:39.345Z,4.45
2022-08-26T00:56:21.753Z,6.00
2022-08-26T00:59:01.940Z,4.10
2022-08-26T01:01:39.920Z,6.30
2022-08-26T01:04:17.115Z,6.75
2022-08-26T01:06:52.418Z,4.70
2022-08-26T01:09:23.058Z,5.10
2022-08-26T01:12:05.003Z,5.47
2022-08-26T01:14:36.698Z,4.93
2022-08-26T01:17:14.841Z,5.30
2022-08-26T01:20:04.106Z,3.60
2022-08-26T01:22:57.758Z,4.85
2022-08-26T01:25:36.184Z,3.67
2022-08-26T01:28:14.839Z,4.53
2022-08-26T01:30:47.410Z,5.90
2022-08-26T01:33:40.015Z,5.65
2022-08-26T01:36:17.033Z,4.43
2022-08-26T01:38:50.865Z,4.55
2022-08-26T01:41:27.293Z,4.70
2022-08-26T01:44:04.877Z,5.28
2022-08-26T01:46:34.076Z,4.72
2022-08-26T01:49:06.843Z,5.68
2022-08-26T01:51:46.411Z,5.13
2022-08-26T01:54:18.075Z,4.78
2022-08-26T01:56:56.606Z,4.80
2022-08-26T01:59:28.638Z,5.53
2022-08-26T02:02:03.931Z,4.00
2022-08-26T02:04:37.456Z,5.15
2022-08-26T02:07:09.685Z,4.78
2022-08-26T02:09:41.417Z,5.20
2022-08-26T02:12:17.889Z,6.38
2022-08-26T02:14:56.185Z,4.68
2022-08-26T02:17:33.976Z,4.50
2022-08-26T02:20:14.805Z,5.55
2022-08-26T02:22:43.109Z,5.50
2022-08-26T02:25:25.103Z,5.10
2022-08-26T02:27:58.476Z,4.88
2022-08-26T02:30:34.645Z,4.50
2022-08-26T02:33:12.000Z,5.32
2022-08-26T02:35:49.074Z,4.88
2022-08-26T02:38:19.151Z,5.18
2022-08-26T02:40:51.427Z,5.78
2022-08-26T02:43:31.450Z,4.53
2022-08-26T02:46:05.241Z,5.28
2022-08-26T02:48:38.383Z,5.15
2022-08-26T02:51:13.344Z,4.85
2022-08-26T02:53:49.651Z,5.13
2022-08-26T02:56:23.484Z,4.95
2022-08-26T02:58:58.974Z,4.63
2022-08-26T03:01:39.612Z,4.90
2022-08-26T03:04:13.946Z,4.13
2022-08-26T03:06:53.060Z,4.63
2022-08-26T03:09:25.449Z,6.38
2022-08-26T03:11:58.935Z,5.20
2022-08-26T03:14:29.945Z,5.50
2022-08-26T03:17:05.908Z,8.30
2022-08-26T03:19:38.769Z,4.95
2022-08-26T03:22:12.042Z,4.80
2022-08-26T03:24:46.014Z,4.40
2022-08-26T03:27:16.830Z,4.03
2022-08-26T03:30:04.225Z,5.20
2022-08-26T03:32:34.939Z,4.85
2022-08-26T03:35:05.424Z,5.35
2022-08-26T03:37:36.156Z,4.65
2022-08-26T03:40:07.672Z,7.00
2022-08-26T03:42:39.385Z,5.32
2022-08-26T03:45:12.197Z,4.05
2022-08-26T03:47:42.794Z,5.45
2022-08-26T03:50:14.370Z,5.40
2022-08-26T03:52:43.995Z,5.00
2022-08-26T03:55:12.347Z,5.32
2022-08-26T03:57:43.998Z,5.45
2022-08-26T04:00:18.916Z,5.05
2022-08-26T04:02:51.139Z,5.70
2022-08-26T04:05:24.496Z,4.65
2022-08-26T04:07:54.180Z,5.78
2022-08-26T04:10:29.104Z,5.53
2022-08-26T04:13:09.446Z,4.78
2022-08-26T04:15:39.302Z,5.28
2022-08-26T04:18:15.154Z,5.57
2022-08-26T04:20:47.424Z,5.45
2022-08-26T04:23:17.297Z,4.05
2022-08-26T04:25:44.817Z,5.95
2022-08-26T04:28:14.883Z,5.50
2022-08-26T04:30:49.580Z,3.92
2022-08-26T04:33:32.549Z,5.75
2022-08-26T04:36:08.102Z,5.20
2022-08-26T04:38:41.765Z,4.15
2022-08-26T04:41:14.922Z,4.82
2022-08-26T04:43:47.508Z,5.68
2022-08-26T04:46:24.602Z,5.55
2022-08-26T04:48:57.071Z,3.65
2022-08-26T04:51:29.356Z,6.72
2022-08-26T04:54:02.710Z,5.30
2022-08-26T04:56:42.340Z,5.88
2022-08-26T04:59:18.150Z,4.75
2022-08-26T05:01:56.384Z,5.65
2022-08-26T05:04:28.111Z,4.20
2022-08-26T05:07:02.322Z,5.33
2022-08-26T05:09:30.732Z,4.70
2022-08-26T05:12:05.395Z,5.43
2022-08-26T05:14:42.146Z,5.43
2022-08-26T05:17:18.750Z,4.70
2022-08-26T05:19:51.367Z,5.97
2022-08-26T05:22:24.503Z,5.75
2022-08-26T05:24:52.733Z,4.97
2022-08-26T05:27:28.656Z,6.05
2022-08-26T05:30:06.714Z,5.53
2022-08-26T05:32:37.191Z,6.03
2022-08-26T05:35:08.857Z,5.63
2022-08-26T05:37:38.235Z,5.22
2022-08-26T05:40:07.465Z,4.90
2022-08-26T05:42:38.867Z,5.28
2022-08-26T05:45:07.313Z,5.55
2022-08-26T05:47:37.899Z,6.63
2022-08-26T05:50:21.949Z,5.13
2022-08-26T05:52:56.334Z,5.30
2022-08-26T05:55:26.108Z,5.45
2022-08-26T05:57:56.400Z,6.15
2022-08-26T06:00:36.049Z,4.80
2022-08-26T06:03:31.774Z,4.47
2022-08-26T06:06:20.193Z,4.75
2022-08-26T06:09:04.499Z,4.47
2022-08-26T06:11:41.518Z,9.23
2022-08-26T06:14:19.071Z,10.07
2022-08-26T06:16:55.331Z,8.77
2022-08-26T06:19:34.528Z,11.43
2022-08-26T06:22:25.545Z,7.03
2022-08-26T06:25:20.322Z,10.55
2022-08-26T06:27:56.083Z,6.88
2022-08-26T06:30:29.429Z,8.88
2022-08-26T06:33:03.071Z,8.23
2022-08-26T06:35:40.381Z,9.82
2022-08-26T06:38:16.894Z,13.23
2022-08-26T06:40:49.209Z,7.72
2022-08-26T06:43:25.871Z,16.92
2022-08-26T06:46:17.507Z,15.40
2022-08-26T06:48:49.010Z,17.38
2022-08-26T06:51:26.162Z,18.40
2022-08-26T06:54:00.298Z,17.02
2022-08-26T06:56:44.075Z,14.27
2022-08-26T06:59:20.415Z,16.45
2022-08-26T07:01:51.594Z,16.13
2022-08-26T07:04:25.028Z,11.80
2022-08-26T07:07:04.692Z,15.00
2022-08-26T07:09:38.500Z,12.90
2022-08-26T07:12:09.639Z,13.15
2022-08-26T07:14:48.162Z,13.67
2022-08-26T07:17:20.461Z,11.13
2022-08-26T07:19:51.658Z,12.88
2022-08-26T07:22:21.834Z,11.73
2022-08-26T07:24:50.761Z,12.82
2022-08-26T07:27:18.896Z,9.68
2022-08-26T07:29:47.105Z,15.10
2022-08-26T07:32:17.809Z,10.48
2022-08-26T07:34:49.041Z,10.02
2022-08-26T07:37:18.517Z,11.27
2022-08-26T07:39:59.830Z,10.45
2022-08-26T07:42:36.142Z,11.20
2022-08-26T07:45:06.221Z,9.75
2022-08-26T07:47:34.704Z,10.15
2022-08-26T07:50:13.599Z,8.98
2022-08-26T07:52:48.851Z,11.50
2022-08-26T07:55:25.081Z,10.38
2022-08-26T07:57:58.767Z,8.98
2022-08-26T08:00:32.959Z,9.70
2022-08-26T08:03:06.408Z,11.57
2022-08-26T08:05:41.233Z,9.88
2022-08-26T08:08:27.923Z,10.50
2022-08-26T08:11:04.984Z,10.95
2022-08-26T08:13:44.926Z,9.43
2022-08-26T08:16:22.703Z,9.68
2022-08-26T08:18:59.223Z,10.25
2022-08-26T08:21:34.030Z,12.43
2022-08-26T08:24:07.551Z,10.43
2022-08-26T08:26:44.286Z,9.75
2022-08-26T08:29:25.701Z,9.65
2022-08-26T08:32:06.115Z,9.27
2022-08-26T08:34:51.793Z,11.40
2022-08-26T08:37:29.756Z,10.45
2022-08-26T08:40:12.838Z,10.25
2022-08-26T08:43:02.864Z,9.15
2022-08-26T08:45:49.875Z,8.93
2022-08-26T08:48:31.875Z,9.27
2022-08-26T08:51:08.294Z,8.65
2022-08-26T08:53:55.018Z,8.68
2022-08-26T08:56:37.822Z,10.75
2022-08-26T08:59:24.706Z,8.35
2022-08-26T09:02:18.504Z,10.10
2022-08-26T09:05:19.514Z,8.75
2022-08-26T09:08:06.815Z,8.98
2022-08-26T09:10:57.981Z,9.60
2022-08-26T09:13:32.031Z,9.48
2022-08-26T09:16:27.960Z,10.50
2022-08-26T09:19:11.268Z,10.52
2022-08-26T09:21:44.781Z,9.50
2022-08-26T09:24:24.059Z,9.80
2022-08-26T09:27:02.285Z,9.48
2022-08-26T09:29:50.449Z,9.93
2022-08-26T09:32:30.230Z,9.35
2022-08-26T09:35:23.565Z,9.77
2022-08-26T09:37:58.635Z,8.82
2022-08-26T09:40:40.796Z,10.55
2022-08-26T09:43:25.310Z,8.52
2022-08-26T09:46:15.248Z,9.52
2022-08-26T09:48:53.128Z,9.35
2022-08-26T09:51:38.678Z,8.38
2022-08-26T09:54:30.372Z,10.60
2022-08-26T09:57:26.521Z,9.32
2022-08-26T09:59:57.384Z,8.75
2022-08-26T10:02:37.442Z,9.40
2022-08-26T10:05:18.321Z,11.68
2022-08-26T10:07:54.111Z,8.30
2022-08-26T10:10:46.192Z,9.43
2022-08-26T10:13:41.204Z,9.00
2022-08-26T10:16:36.052Z,8.45
2022-08-26T10:19:29.113Z,8.52
2022-08-26T10:22:45.932Z,9.13
2022-08-26T10:25:22.634Z,8.18
2022-08-26T10:28:02.897Z,9.45
2022-08-26T10:31:14.757Z,9.68
2022-08-26T10:33:49.412Z,8.23
2022-08-26T10:37:10.507Z,10.48
2022-08-26T10:39:46.689Z,9.10
2022-08-26T10:42:26.806Z,8.95
2022-08-26T10:45:25.465Z,9.18
2022-08-26T10:48:07.374Z,8.20
2022-08-26T10:50:49.048Z,8.88
2022-08-26T10:53:26.498Z,10.50
2022-08-26T10:56:05.538Z,10.70
2022-08-26T10:59:12.754Z,9.00
2022-08-26T11:02:07.236Z,10.30
2022-08-26T11:04:44.510Z,8.75
2022-08-26T11:07:40.763Z,10.27
2022-08-26T11:10:23.053Z,10.20
2022-08-26T11:13:04.015Z,9.68
2022-08-26T11:15:44.396Z,10.32
2022-08-26T11:18:37.044Z,9.13
2022-08-26T11:21:47.765Z,10.80
2022-08-26T11:24:38.964Z,10.48
2022-08-26T11:27:38.636Z,9.68
2022-08-26T11:30:35.137Z,9.88
2022-08-26T11:33:29.810Z,10.13
2022-08-26T11:36:00.791Z,10.27
2022-08-26T11:38:46.375Z,11.60
2022-08-26T11:41:22.381Z,9.18
2022-08-26T11:43:59.586Z,9.10
2022-08-26T11:46:37.857Z,10.20
2022-08-26T11:49:09.835Z,9.52
2022-08-26T11:51:41.893Z,8.57
2022-08-26T11:54:18.057Z,9.20
2022-08-26T11:57:12.940Z,10.70
2022-08-26T11:59:43.930Z,10.45
2022-08-26T12:02:17.906Z,9.52
2022-08-26T12:04:50.824Z,9.82
2022-08-26T12:07:24.458Z,9.27
2022-08-26T12:10:00.481Z,9.02
2022-08-26T12:12:36.126Z,9.60
2022-08-26T12:15:23.412Z,9.30
2022-08-26T12:17:54.759Z,9.88
2022-08-26T12:20:46.617Z,9.48
2022-08-26T12:23:41.436Z,8.77
2022-08-26T12:26:23.355Z,8.70
2022-08-26T12:29:26.788Z,9.65
2022-08-26T12:34:52.218Z,11.05
2022-08-26T12:37:27.621Z,9.30
2022-08-26T12:40:34.387Z,9.32
2022-08-26T12:43:15.595Z,10.90
2022-08-26T12:46:00.911Z,9.32
2022-08-26T12:48:36.271Z,10.80
2022-08-26T12:51:27.990Z,8.82
2022-08-26T12:54:03.300Z,8.73
2022-08-26T12:56:43.197Z,10.25
2022-08-26T12:59:25.381Z,8.77
2022-08-26T13:01:58.650Z,9.48
2022-08-26T13:07:24.047Z,9.25
2022-08-26T13:10:00.984Z,10.43
2022-08-26T13:12:42.967Z,9.10
2022-08-26T13:15:22.164Z,8.55
2022-08-26T13:17:50.433Z,9.25
2022-08-26T13:20:28.088Z,9.82
2022-08-26T13:22:59.715Z,10.70
2022-08-26T13:25:36.383Z,9.60
2022-08-26T13:28:08.861Z,9.07
2022-08-26T13:30:46.172Z,9.77
2022-08-26T13:33:22.992Z,8.50
2022-08-26T13:35:58.941Z,9.07
2022-08-26T13:38:33.586Z,8.90
2022-08-26T13:41:15.593Z,10.02
2022-08-26T13:43:47.409Z,9.02
2022-08-26T13:46:23.286Z,9.27
2022-08-26T13:49:02.381Z,10.70
2022-08-26T13:51:42.003Z,9.43
2022-08-26T13:54:24.025Z,9.63
2022-08-26T13:57:02.552Z,9.25
2022-08-26T13:59:37.099Z,11.35
2022-08-26T14:02:17.489Z,9.18
2022-08-26T14:05:00.146Z,11.02
2022-08-26T14:07:44.770Z,10.15
2022-08-26T14:10:25.586Z,8.82
2022-08-26T14:12:59.605Z,9.82
2022-08-26T14:15:39.038Z,8.45
2022-08-26T14:18:27.341Z,8.40
2022-08-26T14:21:08.026Z,9.38
2022-08-26T14:23:44.901Z,9.35
2022-08-26T14:26:28.716Z,10.18
2022-08-26T14:29:12.392Z,10.80
2022-08-26T14:31:53.584Z,9.63
2022-08-26T14:34:30.288Z,8.57
2022-08-26T14:37:13.546Z,9.23
2022-08-26T14:39:50.005Z,9.15
2022-08-26T14:42:31.331Z,8.73
2022-08-26T14:45:10.268Z,15.18
2022-08-26T14:47:41.909Z,9.02
2022-08-26T14:50:23.313Z,9.30
2022-08-26T14:53:15.252Z,8.82
2022-08-26T14:55:52.099Z,9.60
2022-08-26T14:58:34.975Z,10.25
2022-08-26T15:01:11.197Z,9.30
2022-08-26T15:03:54.313Z,9.38
2022-08-26T15:06:29.677Z,9.68
2022-08-26T15:09:03.540Z,8.40
2022-08-26T15:11:34.738Z,8.68
2022-08-26T15:14:06.491Z,8.65
2022-08-26T15:16:37.826Z,8.32
2022-08-26T15:19:16.271Z,10.27
2022-08-26T15:21:49.993Z,8.57
2022-08-26T15:24:25.946Z,8.50
2022-08-26T15:26:57.194Z,9.30
2022-08-26T15:29:30.212Z,9.30
2022-08-26T15:32:10.023Z,9.13
2022-08-26T15:34:45.230Z,9.35
2022-08-26T15:37:22.170Z,9.43
2022-08-26T15:39:51.391Z,9.02
2022-08-26T15:42:25.513Z,9.23
2022-08-26T15:45:00.962Z,27.38
2022-08-26T15:47:44.430Z,9.65
2022-08-26T15:50:35.356Z,9.35
2022-08-26T15:53:05.075Z,11.63
2022-08-26T15:55:33.366Z,9.10
2022-08-26T15:58:04.625Z,11.60
2022-08-26T16:00:40.624Z,9.48
2022-08-26T16:03:23.932Z,9.60
2022-08-26T16:06:07.374Z,9.27
2022-08-26T16:08:45.281Z,9.05
2022-08-26T16:11:24.379Z,10.10
2022-08-26T16:14:08.831Z,10.60
2022-08-26T16:16:47.429Z,8.63
2022-08-26T16:19:23.797Z,11.23
2022-08-26T16:21:56.338Z,10.07
2022-08-26T16:24:36.052Z,9.23
2022-08-26T16:27:18.039Z,10.73
2022-08-26T16:29:51.534Z,14.90
2022-08-26T16:32:31.169Z,9.88
2022-08-26T16:35:10.766Z,9.75
2022-08-26T16:40:42.033Z,33.88
2022-08-26T16:43:15.758Z,27.42
2022-08-26T16:45:49.179Z,23.65
2022-08-26T16:48:25.789Z,14.98
2022-08-26T16:51:04.423Z,13.32
2022-08-26T16:53:40.321Z,13.65
2022-08-26T16:58:54.112Z,14.07
2022-08-26T17:01:34.030Z,15.27
2022-08-26T17:04:04.912Z,11.80
2022-08-26T17:06:45.566Z,14.82
2022-08-26T17:09:19.435Z,15.00
2022-08-26T17:11:51.400Z,10.80
2022-08-26T17:14:25.076Z,14.30
2022-08-26T17:17:01.605Z,12.82
2022-08-26T17:19:41.039Z,12.18
2022-08-26T17:22:23.264Z,12.68
2022-08-26T17:24:53.796Z,11.48
2022-08-26T17:27:32.385Z,10.75
2022-08-26T17:30:05.614Z,12.18
2022-08-26T17:32:47.633Z,9.80
2022-08-26T17:35:20.374Z,13.55
2022-08-26T17:37:56.898Z,15.90
2022-08-26T17:40:35.145Z,12.68
2022-08-26T17:43:17.381Z,11.70
2022-08-26T17:45:51.030Z,10.90
2022-08-26T17:48:27.413Z,11.52
2022-08-26T17:51:11.194Z,12.32
2022-08-26T17:53:50.504Z,11.57
2022-08-26T17:56:25.489Z,10.55
2022-08-26T17:59:03.572Z,11.32
2022-08-26T18:01:39.763Z,10.88
2022-08-26T18:04:12.476Z,11.52
2022-08-26T18:06:45.191Z,11.57
2022-08-26T18:09:21.134Z,12.00
2022-08-26T18:11:54.424Z,11.40
2022-08-26T18:14:25.484Z,12.68
2022-08-26T18:17:03.777Z,10.07
2022-08-26T18:22:23.259Z,10.02
2022-08-26T18:25:06.360Z,10.52
2022-08-26T18:27:45.178Z,11.82
2022-08-26T18:30:24.436Z,10.43
2022-08-26T18:32:55.515Z,11.02
2022-08-26T18:35:33.898Z,10.23
2022-08-26T18:38:13.802Z,9.88
2022-08-26T18:40:54.917Z,11.23
2022-08-26T18:43:29.390Z,10.68
2022-08-26T18:46:12.435Z,9.52
2022-08-26T18:48:51.223Z,10.93
2022-08-26T18:51:29.671Z,9.80
2022-08-26T18:54:08.374Z,9.80
2022-08-26T18:56:43.926Z,10.38
2022-08-26T18:59:27.964Z,9.90
2022-08-26T19:02:04.780Z,9.85
2022-08-26T19:04:37.142Z,9.57
2022-08-26T19:07:15.384Z,9.45
2022-08-26T19:09:54.022Z,11.95
2022-08-26T19:12:26.955Z,9.88
2022-08-26T19:15:03.670Z,10.02
2022-08-26T19:17:37.420Z,10.93
2022-08-26T19:20:12.753Z,10.10
2022-08-26T19:22:48.801Z,9.75
2022-08-26T19:25:33.816Z,9.60
2022-08-26T19:28:12.335Z,9.13
2022-08-26T19:30:53.129Z,9.60
2022-08-26T19:33:21.770Z,9.93
2022-08-26T19:35:57.948Z,10.07
2022-08-26T19:38:31.300Z,10.35
2022-08-26T19:43:43.545Z,8.90
2022-08-26T19:46:23.567Z,10.13
2022-08-26T19:48:56.523Z,11.05
2022-08-26T19:51:36.732Z,9.00
2022-08-26T19:54:12.543Z,10.18
2022-08-26T19:56:49.588Z,9.43
2022-08-26T19:59:25.057Z,9.98
2022-08-26T20:02:01.979Z,9.95
2022-08-26T20:04:34.448Z,10.80
2022-08-26T20:07:06.791Z,8.93
2022-08-26T20:09:38.455Z,10.07
2022-08-26T20:12:12.488Z,10.05
2022-08-26T20:14:43.841Z,9.15
2022-08-26T20:17:22.705Z,9.10
2022-08-26T20:20:28.480Z,9.68
2022-08-26T20:23:14.651Z,8.80
2022-08-26T20:25:47.092Z,8.63
2022-08-26T20:28:18.419Z,9.55
2022-08-26T20:30:57.660Z,9.45
2022-08-26T20:33:31.699Z,8.85
2022-08-26T20:36:26.986Z,10.40
2022-08-26T20:39:01.805Z,9.50
2022-08-26T20:41:35.919Z,8.83
2022-08-26T20:44:12.211Z,9.73
2022-08-26T20:46:56.628Z,9.35
2022-08-26T20:49:30.506Z,9.30
2022-08-26T20:52:06.193Z,9.30
2022-08-26T20:54:33.847Z,9.35
2022-08-26T20:57:07.153Z,9.68
2022-08-26T21:02:16.538Z,10.50
2022-08-26T21:04:57.467Z,8.43
2022-08-26T21:07:35.775Z,9.25
2022-08-26T21:10:11.897Z,8.90
2022-08-26T21:12:47.723Z,9.75
2022-08-26T21:15:23.871Z,9.45
2022-08-26T21:17:54.625Z,9.40
2022-08-26T21:20:25.032Z,10.07
2022-08-26T21:23:13.809Z,9.82
2022-08-26T21:25:50.163Z,8.45
2022-08-26T21:28:29.051Z,9.90
2022-08-26T21:31:06.286Z,8.85
2022-08-26T21:33:42.963Z,9.35
2022-08-26T21:36:18.040Z,9.70
2022-08-26T21:38:53.307Z,8.80
2022-08-26T21:41:29.596Z,9.73
2022-08-26T21:43:59.843Z,9.65
2022-08-26T21:46:35.847Z,10.10
2022-08-26T21:49:15.930Z,8.93
2022-08-26T21:51:52.579Z,9.65
2022-08-26T21:54:28.445Z,8.73
2022-08-26T21:57:09.344Z,9.10
2022-08-26T21:59:45.990Z,9.70
2022-08-26T22:02:18.165Z,8.50
2022-08-26T22:04:57.284Z,9.65
2022-08-26T22:07:33.809Z,8.82
2022-08-26T22:10:13.334Z,8.45
2022-08-26T22:12:43.945Z,8.77
2022-08-26T22:15:18.242Z,8.98
2022-08-26T22:17:54.047Z,8.25
2022-08-26T22:20:35.748Z,8.45
2022-08-26T22:23:13.804Z,8.82
2022-08-26T22:25:41.496Z,8.25
2022-08-26T22:28:23.210Z,9.43
2022-08-26T22:30:50.874Z,8.55
2022-08-26T22:33:26.449Z,9.20
2022-08-26T22:36:06.740Z,8.13
2022-08-26T22:38:42.841Z,10.52
2022-08-26T22:41:15.937Z,9.60
2022-08-26T22:43:54.919Z,8.82
2022-08-26T22:46:27.690Z,8.00
2022-08-26T22:49:06.482Z,10.15
2022-08-26T22:51:42.258Z,8.40
2022-08-26T22:54:19.729Z,8.45
2022-08-26T22:56:54.743Z,9.27
2022-08-26T22:59:35.831Z,9.48
2022-08-26T23:02:09.564Z,8.85
2022-08-26T23:04:44.738Z,8.82
2022-08-26T23:07:20.288Z,8.73
2022-08-26T23:09:53.705Z,8.68
2022-08-26T23:12:29.370Z,9.75
2022-08-26T23:15:11.362Z,8.40
2022-08-26T23:17:55.878Z,8.20
2022-08-26T23:20:38.166Z,9.20
2022-08-26T23:23:13.543Z,9.77
2022-08-26T23:25:43.469Z,8.70
2022-08-26T23:28:27.891Z,10.07
2022-08-26T23:31:03.179Z,7.65
2022-08-26T23:33:55.497Z,8.90
2022-08-26T23:36:35.064Z,8.93
2022-08-26T23:39:15.527Z,8.98
2022-08-26T23:41:46.233Z,8.35
2022-08-26T23:44:26.791Z,7.75
2022-08-26T23:46:55.457Z,8.70
2022-08-26T23:49:34.252Z,8.80
2022-08-26T23:52:24.453Z,8.98
2022-08-26T23:54:59.543Z,9.25
2022-08-26T23:57:38.437Z,8.63
